createdAt,value
2018-10-12T00:00:50.854Z,83.00
2018-10-12T00:03:18.475Z,83.20
2018-10-12T00:05:46.013Z,82.80
2018-10-12T00:08:13.617Z,83.20
2018-10-12T00:10:41.161Z,83.60
2018-10-12T00:13:08.720Z,84.00
2018-10-12T00:15:36.281Z,84.30
2018-10-12T00:18:03.881Z,84.00
2018-10-12T00:20:31.471Z,85.10
2018-10-12T00:22:59.012Z,85.50
2018-10-12T00:25:26.588Z,85.60
2018-10-12T00:27:54.148Z,85.80
2018-10-12T00:30:21.823Z,86.40
2018-10-12T00:32:49.359Z,86.80
2018-10-12T00:35:16.907Z,87.10
2018-10-12T00:37:44.493Z,88.10
2018-10-12T00:40:12.069Z,88.20
2018-10-12T00:42:39.670Z,87.50
2018-10-12T00:45:07.311Z,87.10
2018-10-12T00:47:34.896Z,87.50
2018-10-12T00:50:02.496Z,86.90
2018-10-12T00:52:30.061Z,86.80
2018-10-12T00:54:57.822Z,87.50
2018-10-12T00:57:25.409Z,86.80
2018-10-12T00:59:52.995Z,86.90
2018-10-12T01:02:22.595Z,86.80
2018-10-12T01:04:50.160Z,86.40
2018-10-12T01:07:17.731Z,87.70
2018-10-12T01:09:45.897Z,87.50
2018-10-12T01:12:26.759Z,87.50
2018-10-12T01:14:54.341Z,87.70
2018-10-12T01:17:21.907Z,87.70
2018-10-12T01:19:50.192Z,88.20
2018-10-12T01:22:17.889Z,88.40
2018-10-12T01:24:45.497Z,88.20
2018-10-12T01:27:13.058Z,88.20
2018-10-12T01:29:40.677Z,88.10
2018-10-12T01:32:09.874Z,88.10
2018-10-12T01:34:37.456Z,88.60
2018-10-12T01:37:05.014Z,88.80
2018-10-12T01:39:32.575Z,88.10
2018-10-12T01:42:00.157Z,88.10
2018-10-12T01:44:28.041Z,88.20
2018-10-12T01:46:56.566Z,88.40
2018-10-12T01:49:24.135Z,88.60
2018-10-12T01:51:51.720Z,89.00
2018-10-12T01:54:19.288Z,88.60
2018-10-12T01:56:46.927Z,88.20
2018-10-12T01:59:14.525Z,88.60
2018-10-12T02:01:42.085Z,89.20
2018-10-12T02:04:09.661Z,90.40
2018-10-12T02:06:37.340Z,90.40
2018-10-12T02:09:05.894Z,90.30
2018-10-12T02:11:33.491Z,90.90
2018-10-12T02:14:01.018Z,90.80
2018-10-12T02:16:28.581Z,91.50
2018-10-12T02:18:56.137Z,91.20
2018-10-12T02:21:23.689Z,90.50
2018-10-12T02:23:51.376Z,90.20
2018-10-12T02:26:19.016Z,89.90
2018-10-12T02:28:46.591Z,89.70
2018-10-12T02:31:14.133Z,89.60
2018-10-12T02:33:41.699Z,89.60
2018-10-12T02:36:09.248Z,89.70
2018-10-12T02:38:36.813Z,89.70
2018-10-12T02:41:04.393Z,90.10
2018-10-12T02:43:31.953Z,90.10
2018-10-12T02:45:59.527Z,90.10
2018-10-12T02:48:27.060Z,90.20
2018-10-12T02:50:54.612Z,90.40
2018-10-12T02:53:22.187Z,90.50
2018-10-12T02:55:49.764Z,90.60
2018-10-12T02:58:17.344Z,90.60
2018-10-12T03:00:44.961Z,90.40
2018-10-12T03:03:13.931Z,90.30
2018-10-12T03:05:41.796Z,89.70
2018-10-12T03:08:09.500Z,89.40
2018-10-12T03:10:37.060Z,89.20
2018-10-12T03:13:05.618Z,89.40
2018-10-12T03:15:33.915Z,89.20
2018-10-12T03:18:01.455Z,89.20
2018-10-12T03:20:29.671Z,89.70
2018-10-12T03:22:57.216Z,90.30
2018-10-12T03:25:24.840Z,90.10
2018-10-12T03:28:03.704Z,89.70
2018-10-12T03:30:31.453Z,89.20
2018-10-12T03:32:59.181Z,89.20
2018-10-12T03:35:26.904Z,89.00
2018-10-12T03:37:54.494Z,88.60
2018-10-12T03:40:22.102Z,88.40
2018-10-12T03:42:49.817Z,88.10
2018-10-12T03:45:17.414Z,88.10
2018-10-12T03:47:45.006Z,88.10
2018-10-12T03:50:12.600Z,88.20
2018-10-12T03:52:40.177Z,88.40
2018-10-12T03:55:07.792Z,88.40
2018-10-12T03:57:35.421Z,88.10
2018-10-12T04:00:03.535Z,88.20
2018-10-12T04:02:31.090Z,90.70
2018-10-12T04:04:58.731Z,90.10
2018-10-12T04:07:26.441Z,89.60
2018-10-12T04:09:53.961Z,89.20
2018-10-12T04:12:21.689Z,88.80
2018-10-12T04:14:49.249Z,88.80
2018-10-12T04:17:16.788Z,88.80
2018-10-12T04:19:44.441Z,89.20
2018-10-12T04:22:12.028Z,89.40
2018-10-12T04:24:39.611Z,90.50
2018-10-12T04:27:07.232Z,90.40
2018-10-12T04:29:35.721Z,90.20
2018-10-12T04:32:03.384Z,89.90
2018-10-12T04:34:31.066Z,89.70
2018-10-12T04:36:58.668Z,90.50
2018-10-12T04:39:43.885Z,91.40
2018-10-12T04:42:11.505Z,90.90
2018-10-12T04:44:39.178Z,90.40
2018-10-12T04:47:07.179Z,90.40
2018-10-12T04:49:35.225Z,90.30
2018-10-12T04:52:03.533Z,90.20
2018-10-12T04:54:31.119Z,90.20
2018-10-12T04:56:58.763Z,90.20
2018-10-12T04:59:26.455Z,90.10
2018-10-12T05:01:54.092Z,90.10
2018-10-12T05:04:21.829Z,90.10
2018-10-12T05:06:49.524Z,91.30
2018-10-12T05:09:17.146Z,92.40
2018-10-12T05:11:45.476Z,93.20
2018-10-12T05:14:13.076Z,92.90
2018-10-12T05:16:40.678Z,92.40
2018-10-12T05:19:08.912Z,92.00
2018-10-12T05:21:36.584Z,91.60
2018-10-12T05:24:04.328Z,91.40
2018-10-12T05:26:32.355Z,91.40
2018-10-12T05:28:59.992Z,91.40
2018-10-12T05:31:27.673Z,91.20
2018-10-12T05:33:56.513Z,90.90
2018-10-12T05:36:24.067Z,90.70
2018-10-12T05:38:52.516Z,90.60
2018-10-12T05:41:20.065Z,90.60
2018-10-12T05:43:47.645Z,91.00
2018-10-12T05:46:15.164Z,91.20
2018-10-12T05:48:54.194Z,90.90
2018-10-12T05:51:21.821Z,90.80
2018-10-12T05:53:50.456Z,90.40
2018-10-12T05:56:21.266Z,90.70
2018-10-12T05:58:49.121Z,90.60
2018-10-12T06:01:16.761Z,90.60
2018-10-12T06:03:44.323Z,91.30
2018-10-12T06:06:11.980Z,90.90
2018-10-12T06:08:39.553Z,90.50
2018-10-12T06:11:07.162Z,89.60
2018-10-12T06:13:34.715Z,89.20
2018-10-12T06:16:02.363Z,88.10
2018-10-12T06:18:29.922Z,86.80
2018-10-12T06:20:57.591Z,86.20
2018-10-12T06:23:25.169Z,86.40
2018-10-12T06:25:52.779Z,86.60
2018-10-12T06:28:20.424Z,86.60
2018-10-12T06:30:48.031Z,86.00
2018-10-12T06:33:15.654Z,85.60
2018-10-12T06:35:43.178Z,85.30
2018-10-12T06:38:10.811Z,80.80
2018-10-12T06:40:38.406Z,70.70
2018-10-12T06:43:06.015Z,60.50
2018-10-12T06:45:33.670Z,52.30
2018-10-12T06:48:01.275Z,49.40
2018-10-12T06:50:28.848Z,45.60
2018-10-12T06:52:56.457Z,42.40
2018-10-12T06:55:24.042Z,38.20
2018-10-12T06:57:51.588Z,35.00
2018-10-12T07:00:19.196Z,31.20
2018-10-12T07:02:46.771Z,29.50
2018-10-12T07:05:15.092Z,27.60
2018-10-12T07:07:43.157Z,25.70
2018-10-12T07:10:10.758Z,24.30
2018-10-12T07:12:38.303Z,23.40
2018-10-12T07:15:06.567Z,22.30
2018-10-12T07:17:34.154Z,22.60
2018-10-12T07:20:01.763Z,21.80
2018-10-12T07:22:30.191Z,21.30
2018-10-12T07:24:57.789Z,20.20
2018-10-12T07:27:25.333Z,19.90
2018-10-12T07:29:52.893Z,19.10
2018-10-12T07:32:20.495Z,18.60
2018-10-12T07:34:48.091Z,17.90
2018-10-12T07:37:15.710Z,17.10
2018-10-12T07:39:44.634Z,16.50
2018-10-12T07:42:12.277Z,16.00
2018-10-12T07:44:39.829Z,15.40
2018-10-12T07:47:07.370Z,14.50
2018-10-12T07:49:35.001Z,14.10
2018-10-12T07:52:02.638Z,13.60
2018-10-12T07:54:31.380Z,13.20
2018-10-12T07:57:05.023Z,13.00
2018-10-12T07:59:32.777Z,12.50
2018-10-12T08:02:01.169Z,12.20
2018-10-12T08:04:29.156Z,11.80
2018-10-12T08:06:57.455Z,11.40
2018-10-12T08:12:00.105Z,10.70
2018-10-12T08:14:27.696Z,10.10
2018-10-12T08:16:55.273Z,10.10
2018-10-12T08:19:23.478Z,9.90
2018-10-12T08:21:51.149Z,9.90
2018-10-12T08:24:18.929Z,9.70
2018-10-12T08:26:46.718Z,9.80
2018-10-12T08:29:14.440Z,9.60
2018-10-12T08:31:42.251Z,9.50
2018-10-12T08:34:10.155Z,9.20
2018-10-12T08:36:38.503Z,9.10
2018-10-12T08:39:08.588Z,8.90
2018-10-12T08:41:36.242Z,8.20
2018-10-12T08:44:04.222Z,8.10
2018-10-12T08:46:32.119Z,8.40
2018-10-12T08:48:59.782Z,8.40
2018-10-12T08:51:27.794Z,8.30
2018-10-12T08:53:59.788Z,7.80
2018-10-12T08:56:27.828Z,7.60
2018-10-12T08:58:55.356Z,7.60
2018-10-12T09:01:22.949Z,7.40
2018-10-12T09:03:50.524Z,7.20
2018-10-12T09:06:18.127Z,7.10
2018-10-12T09:08:45.698Z,6.80
2018-10-12T09:11:13.220Z,6.50
2018-10-12T09:13:40.784Z,6.60
2018-10-12T09:16:08.504Z,6.50
2018-10-12T09:18:36.065Z,6.70
2018-10-12T09:21:03.656Z,6.50
2018-10-12T09:23:31.257Z,6.40
2018-10-12T09:25:58.847Z,6.60
2018-10-12T09:28:26.390Z,7.30
2018-10-12T09:30:53.993Z,7.50
2018-10-12T09:33:21.837Z,7.10
2018-10-12T09:35:49.421Z,6.80
2018-10-12T09:38:17.105Z,7.20
2018-10-12T09:40:44.646Z,6.80
2018-10-12T09:43:12.304Z,6.70
2018-10-12T09:45:39.902Z,6.30
2018-10-12T09:48:07.839Z,6.10
2018-10-12T09:50:35.387Z,5.90
2018-10-12T09:53:03.015Z,6.00
2018-10-12T09:55:30.592Z,5.50
2018-10-12T09:57:58.132Z,5.40
2018-10-12T10:01:33.156Z,5.20
2018-10-12T10:04:06.372Z,5.20
2018-10-12T10:06:33.932Z,4.50
2018-10-12T10:09:01.553Z,5.00
2018-10-12T10:11:29.092Z,4.60
2018-10-12T10:13:56.787Z,4.70
2018-10-12T10:16:24.321Z,4.70
2018-10-12T10:18:51.931Z,4.60
2018-10-12T10:21:19.996Z,4.60
2018-10-12T10:23:47.550Z,4.90
2018-10-12T10:26:15.124Z,4.40
2018-10-12T10:28:42.743Z,4.40
2018-10-12T10:31:10.377Z,4.80
2018-10-12T10:33:39.042Z,5.10
2018-10-12T10:36:06.670Z,4.80
2018-10-12T10:38:34.256Z,5.20
2018-10-12T10:41:01.852Z,5.10
2018-10-12T10:43:29.468Z,4.90
2018-10-12T10:45:57.686Z,5.10
2018-10-12T10:48:25.270Z,5.30
2018-10-12T10:50:52.862Z,5.10
2018-10-12T10:53:20.440Z,5.20
2018-10-12T10:55:47.974Z,4.80
2018-10-12T10:58:15.506Z,4.60
2018-10-12T11:00:43.118Z,4.50
2018-10-12T11:03:10.666Z,4.60
2018-10-12T11:05:38.223Z,4.70
2018-10-12T11:08:05.880Z,4.70
2018-10-12T11:10:33.468Z,5.00
2018-10-12T11:13:01.746Z,5.10
2018-10-12T11:15:29.271Z,5.30
2018-10-12T11:17:56.844Z,5.10
2018-10-12T11:20:24.447Z,5.30
2018-10-12T11:22:52.024Z,5.70
2018-10-12T11:25:19.582Z,5.70
2018-10-12T11:27:47.188Z,5.80
2018-10-12T11:30:15.346Z,5.80
2018-10-12T11:32:43.070Z,5.40
2018-10-12T11:35:10.653Z,5.20
2018-10-12T11:37:38.235Z,5.30
2018-10-12T11:40:06.033Z,5.30
2018-10-12T11:42:44.844Z,5.40
2018-10-12T11:45:12.438Z,4.90
2018-10-12T11:47:39.967Z,5.00
2018-10-12T11:50:07.600Z,5.00
2018-10-12T11:52:35.137Z,5.00
2018-10-12T11:55:02.734Z,5.00
2018-10-12T11:57:30.278Z,4.80
2018-10-12T11:59:57.838Z,4.90
2018-10-12T12:02:25.410Z,4.70
2018-10-12T12:04:52.978Z,4.90
2018-10-12T12:07:20.597Z,5.40
2018-10-12T12:09:48.158Z,5.70
2018-10-12T12:12:15.765Z,5.90
2018-10-12T12:14:43.310Z,5.90
2018-10-12T12:17:10.921Z,5.70
2018-10-12T12:19:38.510Z,5.20
2018-10-12T12:22:06.356Z,5.70
2018-10-12T12:24:33.921Z,5.60
2018-10-12T12:27:01.489Z,5.50
2018-10-12T12:29:29.096Z,5.80
2018-10-12T12:31:56.673Z,5.30
2018-10-12T12:34:24.299Z,5.40
2018-10-12T12:36:52.126Z,5.40
2018-10-12T12:39:19.752Z,5.50
2018-10-12T12:41:47.611Z,5.40
2018-10-12T12:44:15.088Z,5.60
2018-10-12T12:46:42.673Z,6.00
2018-10-12T12:49:10.563Z,6.10
2018-10-12T12:51:37.862Z,5.80
2018-10-12T12:54:05.472Z,6.00
2018-10-12T12:56:33.022Z,5.80
2018-10-12T12:59:00.600Z,6.10
2018-10-12T13:01:28.142Z,6.20
2018-10-12T13:03:55.718Z,6.80
2018-10-12T13:06:23.346Z,6.60
2018-10-12T13:08:50.905Z,6.80
2018-10-12T13:11:18.470Z,7.20
2018-10-12T13:13:46.176Z,7.20
2018-10-12T13:16:13.731Z,7.30
2018-10-12T13:18:41.333Z,7.70
2018-10-12T13:21:08.944Z,7.80
2018-10-12T13:23:36.534Z,7.90
2018-10-12T13:26:04.295Z,7.80
2018-10-12T13:28:31.718Z,8.60
2018-10-12T13:30:59.308Z,8.90
2018-10-12T13:33:26.887Z,9.20
2018-10-12T13:35:54.567Z,9.10
2018-10-12T13:38:22.144Z,9.30
2018-10-12T13:40:49.687Z,9.30
2018-10-12T13:43:17.258Z,9.40
2018-10-12T13:45:44.843Z,9.20
2018-10-12T13:48:12.405Z,9.30
2018-10-12T13:50:40.142Z,9.30
2018-10-12T13:53:07.746Z,9.40
2018-10-12T13:55:35.318Z,9.60
2018-10-12T13:58:02.937Z,8.90
2018-10-12T14:00:30.689Z,10.00
2018-10-12T14:02:58.133Z,9.30
2018-10-12T14:05:25.700Z,10.40
2018-10-12T14:07:53.445Z,10.40
2018-10-12T14:10:21.249Z,10.80
2018-10-12T14:12:49.559Z,11.80
2018-10-12T14:15:17.356Z,11.40
2018-10-12T14:17:45.544Z,11.90
2018-10-12T14:20:13.171Z,12.20
2018-10-12T14:22:40.717Z,12.60
2018-10-12T14:25:08.290Z,13.00
2018-10-12T14:27:36.052Z,12.60
2018-10-12T14:30:03.997Z,12.80
2018-10-12T14:32:31.909Z,13.60
2018-10-12T14:34:59.490Z,13.90
2018-10-12T14:37:27.099Z,13.00
2018-10-12T14:39:54.678Z,13.50
2018-10-12T14:42:22.373Z,13.40
2018-10-12T14:44:50.088Z,13.50
2018-10-12T14:47:17.656Z,14.20
2018-10-12T14:49:45.201Z,14.40
2018-10-12T14:52:13.164Z,15.10
2018-10-12T14:54:40.765Z,15.80
2018-10-12T14:57:14.002Z,16.00
2018-10-12T14:59:41.551Z,16.10
2018-10-12T15:02:10.277Z,16.60
2018-10-12T15:04:37.887Z,16.90
2018-10-12T15:07:05.799Z,16.90
2018-10-12T15:09:33.517Z,17.50
2018-10-12T15:12:01.132Z,18.10
2018-10-12T15:14:40.872Z,18.10
2018-10-12T15:17:08.500Z,18.80
2018-10-12T15:19:36.781Z,19.10
2018-10-12T15:22:04.405Z,19.40
2018-10-12T15:24:32.455Z,20.10
2018-10-12T15:27:00.956Z,20.10
2018-10-12T15:29:28.753Z,20.30
2018-10-12T15:31:56.331Z,20.80
2018-10-12T15:34:23.939Z,21.50
2018-10-12T15:36:51.519Z,22.00
2018-10-12T15:39:19.056Z,22.00
2018-10-12T15:41:46.759Z,22.30
2018-10-12T15:44:14.339Z,22.40
2018-10-12T15:46:42.024Z,22.90
2018-10-12T15:49:09.708Z,23.20
2018-10-12T15:51:37.511Z,23.70
2018-10-12T15:54:05.091Z,24.30
2018-10-12T15:56:32.784Z,25.30
2018-10-12T15:59:00.356Z,25.50
2018-10-12T16:01:27.904Z,25.80
2018-10-12T16:03:55.514Z,27.00
2018-10-12T16:06:23.270Z,26.70
2018-10-12T16:08:50.834Z,27.00
2018-10-12T16:11:18.405Z,27.00
2018-10-12T16:13:46.088Z,27.70
2018-10-12T16:16:13.767Z,29.30
2018-10-12T16:18:41.305Z,30.40
2018-10-12T16:21:08.935Z,30.70
2018-10-12T16:23:36.629Z,31.30
2018-10-12T16:26:23.884Z,31.20
2018-10-12T16:28:51.463Z,32.40
2018-10-12T16:31:19.126Z,33.40
2018-10-12T16:33:46.730Z,34.20
2018-10-12T16:36:14.377Z,35.90
2018-10-12T16:38:41.968Z,34.80
2018-10-12T16:41:09.598Z,35.10
2018-10-12T16:43:37.178Z,36.80
2018-10-12T16:46:04.788Z,37.70
2018-10-12T16:48:32.453Z,36.50
2018-10-12T16:51:00.067Z,37.60
2018-10-12T16:53:27.769Z,38.30
2018-10-12T16:55:55.378Z,39.40
2018-10-12T16:58:23.102Z,40.80
2018-10-12T17:00:51.128Z,41.10
2018-10-12T17:03:18.676Z,41.50
2018-10-12T17:05:47.668Z,42.10
2018-10-12T17:08:16.417Z,42.60
2018-10-12T17:10:44.055Z,43.20
2018-10-12T17:13:13.590Z,43.60
2018-10-12T17:15:41.229Z,44.10
2018-10-12T17:18:09.321Z,44.30
2018-10-12T17:20:37.648Z,45.30
2018-10-12T17:23:05.664Z,46.10
2018-10-12T17:25:33.245Z,46.10
2018-10-12T17:28:01.498Z,47.30
2018-10-12T17:30:29.194Z,47.30
2018-10-12T17:32:56.736Z,47.60
2018-10-12T17:35:24.365Z,48.20
2018-10-12T17:37:51.941Z,50.30
2018-10-12T17:40:19.564Z,49.90
2018-10-12T17:42:47.264Z,50.20
2018-10-12T17:45:14.903Z,50.80
2018-10-12T17:47:42.551Z,52.20
2018-10-12T17:50:10.136Z,51.10
2018-10-12T17:52:38.684Z,52.30
2018-10-12T17:55:06.709Z,52.30
2018-10-12T17:57:34.316Z,52.90
2018-10-12T18:00:02.049Z,54.30
2018-10-12T18:02:29.702Z,53.20
2018-10-12T18:04:57.412Z,53.90
2018-10-12T18:07:24.997Z,55.40
2018-10-12T18:09:52.603Z,55.40
2018-10-12T18:12:20.346Z,55.20
2018-10-12T18:14:48.016Z,55.50
2018-10-12T18:17:15.609Z,55.50
2018-10-12T18:19:43.228Z,57.00
2018-10-12T18:22:10.890Z,57.40
2018-10-12T18:24:38.513Z,57.80
2018-10-12T18:27:07.225Z,59.60
2018-10-12T18:29:34.865Z,58.30
2018-10-12T18:32:03.521Z,58.90
2018-10-12T18:34:33.704Z,58.70
2018-10-12T18:37:01.476Z,58.70
2018-10-12T18:39:29.042Z,60.30
2018-10-12T18:41:56.701Z,59.90
2018-10-12T18:44:24.657Z,62.00
2018-10-12T18:46:53.301Z,61.20
2018-10-12T18:49:21.022Z,61.40
2018-10-12T18:51:49.012Z,62.30
2018-10-12T18:54:16.766Z,62.70
2018-10-12T18:56:44.411Z,63.30
2018-10-12T18:59:12.013Z,64.00
2018-10-12T19:01:39.659Z,64.00
2018-10-12T19:04:07.455Z,65.00
2018-10-12T19:06:35.279Z,64.80
2018-10-12T19:09:03.819Z,64.80
2018-10-12T19:11:31.431Z,65.50
2018-10-12T19:13:59.128Z,66.10
2018-10-12T19:16:26.733Z,67.00
2018-10-12T19:18:54.367Z,67.40
2018-10-12T19:21:22.095Z,68.50
2018-10-12T19:23:49.795Z,67.90
2018-10-12T19:26:17.382Z,68.10
2018-10-12T19:28:45.361Z,70.00
2018-10-12T19:31:13.092Z,70.00
2018-10-12T19:33:40.704Z,70.00
2018-10-12T19:36:08.306Z,70.00
2018-10-12T19:38:36.025Z,70.90
2018-10-12T19:41:04.292Z,70.90
2018-10-12T19:43:31.930Z,71.30
2018-10-12T19:45:59.566Z,72.20
2018-10-12T19:48:27.207Z,72.00
2018-10-12T19:50:55.050Z,72.20
2018-10-12T19:53:23.749Z,72.00
2018-10-12T19:55:51.444Z,72.80
2018-10-12T19:58:19.291Z,72.40
2018-10-12T20:00:46.964Z,72.60
2018-10-12T20:03:15.281Z,72.80
2018-10-12T20:05:42.897Z,73.30
2018-10-12T20:08:10.499Z,74.50
2018-10-12T20:10:38.229Z,74.30
2018-10-12T20:13:05.720Z,74.50
2018-10-12T20:15:33.340Z,75.00
2018-10-12T20:18:00.968Z,76.10
2018-10-12T20:20:28.584Z,75.90
2018-10-12T20:22:56.375Z,75.00
2018-10-12T20:25:23.969Z,75.80
2018-10-12T20:27:51.572Z,75.90
2018-10-12T20:30:19.132Z,75.90
2018-10-12T20:32:46.746Z,76.70
2018-10-12T20:35:14.312Z,76.70
2018-10-12T20:37:41.888Z,76.10
2018-10-12T20:40:09.538Z,77.10
2018-10-12T20:42:37.089Z,77.40
2018-10-12T20:45:04.748Z,78.20
2018-10-12T20:47:32.307Z,77.80
2018-10-12T20:49:59.840Z,78.20
2018-10-12T20:52:27.391Z,78.90
2018-10-12T20:54:54.991Z,78.90
2018-10-12T20:57:22.718Z,79.90
2018-10-12T20:59:50.286Z,79.10
2018-10-12T21:02:17.899Z,79.10
2018-10-12T21:04:45.564Z,78.90
2018-10-12T21:07:13.239Z,79.10
2018-10-12T21:09:40.864Z,79.30
2018-10-12T21:12:08.459Z,79.70
2018-10-12T21:14:36.044Z,79.90
2018-10-12T21:17:03.675Z,80.80
2018-10-12T21:19:31.238Z,81.50
2018-10-12T21:21:58.926Z,81.20
2018-10-12T21:24:26.524Z,81.20
2018-10-12T21:26:54.077Z,81.00
2018-10-12T21:29:21.746Z,80.40
2018-10-12T21:31:49.340Z,79.90
2018-10-12T21:34:17.018Z,80.20
2018-10-12T21:36:44.801Z,80.40
2018-10-12T21:39:12.366Z,81.20
2018-10-12T21:41:39.954Z,82.10
2018-10-12T21:44:07.529Z,81.90
2018-10-12T21:46:35.098Z,81.00
2018-10-12T21:49:02.669Z,81.20
2018-10-12T21:51:30.201Z,81.70
2018-10-12T21:53:57.783Z,81.50
2018-10-12T21:56:25.364Z,81.20
2018-10-12T21:58:52.963Z,81.00
2018-10-12T22:01:20.631Z,80.80
2018-10-12T22:03:48.262Z,83.20
2018-10-12T22:06:15.894Z,83.20
2018-10-12T22:08:49.251Z,83.00
2018-10-12T22:11:16.861Z,82.30
2018-10-12T22:13:44.709Z,82.70
2018-10-12T22:16:12.374Z,82.70
2018-10-12T22:18:40.003Z,84.00
2018-10-12T22:21:08.150Z,83.80
2018-10-12T22:23:35.736Z,84.70
2018-10-12T22:26:03.632Z,83.60
2018-10-12T22:28:31.466Z,83.40
2018-10-12T22:30:59.077Z,83.80
2018-10-12T22:33:26.628Z,84.90
2018-10-12T22:35:54.223Z,84.10
2018-10-12T22:38:21.896Z,84.50
2018-10-12T22:40:49.638Z,84.70
2018-10-12T22:43:17.191Z,84.70
2018-10-12T22:45:44.834Z,85.30
2018-10-12T22:48:12.799Z,85.10
2018-10-12T22:50:40.333Z,84.70
2018-10-12T22:53:07.979Z,84.50
2018-10-12T22:55:35.799Z,84.90
2018-10-12T22:58:04.023Z,84.70
2018-10-12T23:00:32.872Z,84.90
2018-10-12T23:03:00.834Z,84.90
2018-10-12T23:05:28.388Z,85.50
2018-10-12T23:07:55.993Z,84.90
2018-10-12T23:10:24.130Z,85.50
2018-10-12T23:12:52.092Z,85.80
2018-10-12T23:15:20.545Z,86.40
2018-10-12T23:17:48.346Z,86.00
2018-10-12T23:20:16.057Z,85.60
2018-10-12T23:22:43.617Z,85.50
2018-10-12T23:25:11.202Z,85.50
2018-10-12T23:27:38.786Z,86.40
2018-10-12T23:30:07.167Z,86.90
2018-10-12T23:32:34.728Z,87.50
2018-10-12T23:35:02.270Z,87.50
2018-10-12T23:37:29.852Z,87.10
2018-10-12T23:39:58.295Z,87.10
2018-10-12T23:42:25.876Z,86.40
2018-10-12T23:44:53.993Z,86.60
2018-10-12T23:47:22.343Z,86.80
2018-10-12T23:49:49.876Z,86.90
2018-10-12T23:52:17.455Z,86.90
2018-10-12T23:54:45.176Z,87.30
2018-10-12T23:57:12.835Z,87.50
2018-10-12T23:59:40.438Z,87.30
